createdAt,value
2018-04-17T00:01:34.925Z,93.20
2018-04-17T00:04:03.268Z,93.30
2018-04-17T00:06:30.872Z,93.30
2018-04-17T00:08:59.225Z,92.70
2018-04-17T00:11:26.845Z,92.60
2018-04-17T00:13:54.510Z,93.20
2018-04-17T00:16:22.117Z,93.60
2018-04-17T00:18:50.471Z,94.70
2018-04-17T00:21:18.051Z,94.40
2018-04-17T00:23:45.660Z,94.90
2018-04-17T00:26:13.253Z,95.10
2018-04-17T00:28:40.862Z,95.20
2018-04-17T00:31:08.450Z,94.80
2018-04-17T00:33:36.049Z,95.10
2018-04-17T00:36:03.775Z,95.00
2018-04-17T00:38:31.360Z,95.20
2018-04-17T00:40:58.991Z,95.30
2018-04-17T00:43:26.581Z,95.30
2018-04-17T00:45:54.176Z,95.10
2018-04-17T00:48:22.552Z,95.50
2018-04-17T00:50:50.895Z,95.80
2018-04-17T00:53:30.160Z,95.80
2018-04-17T00:55:58.508Z,96.70
2018-04-17T00:58:26.114Z,96.70
2018-04-17T01:00:54.459Z,97.20
2018-04-17T01:03:23.546Z,97.40
2018-04-17T01:05:51.149Z,97.40
2018-04-17T01:08:19.495Z,97.30
2018-04-17T01:10:47.107Z,97.30
2018-04-17T01:13:14.687Z,97.30
2018-04-17T01:15:42.294Z,97.20
2018-04-17T01:18:10.682Z,97.30
2018-04-17T01:20:39.023Z,97.50
2018-04-17T01:23:06.628Z,97.50
2018-04-17T01:25:34.976Z,98.00
2018-04-17T01:28:02.561Z,98.00
2018-04-17T01:30:30.930Z,98.50
2018-04-17T01:32:59.294Z,98.60
2018-04-17T01:35:26.922Z,98.50
2018-04-17T01:37:54.535Z,98.20
2018-04-17T01:40:22.888Z,98.50
2018-04-17T01:42:50.501Z,98.50
2018-04-17T01:45:24.749Z,98.70
2018-04-17T01:47:52.397Z,98.70
2018-04-17T01:50:19.974Z,98.50
2018-04-17T01:52:47.569Z,98.30
2018-04-17T01:55:15.407Z,98.20
2018-04-17T01:57:43.011Z,98.20
2018-04-17T02:00:11.360Z,98.30
2018-04-17T02:02:38.975Z,98.30
2018-04-17T02:05:06.560Z,98.30
2018-04-17T02:07:34.172Z,98.40
2018-04-17T02:10:02.543Z,98.60
2018-04-17T02:12:30.148Z,98.60
2018-04-17T02:14:57.736Z,98.70
2018-04-17T02:17:25.344Z,98.80
2018-04-17T02:19:52.916Z,99.00
2018-04-17T02:22:20.513Z,99.10
2018-04-17T02:24:48.144Z,99.30
2018-04-17T02:27:15.728Z,99.50
2018-04-17T02:29:43.321Z,99.70
2018-04-17T02:32:10.937Z,99.90
2018-04-17T02:34:42.604Z,99.90
2018-04-17T02:37:10.258Z,99.80
2018-04-17T02:39:37.852Z,99.80
2018-04-17T02:42:05.448Z,99.80
2018-04-17T02:44:33.074Z,99.70
2018-04-17T02:47:00.652Z,99.90
2018-04-17T02:49:28.996Z,99.90
2018-04-17T02:51:56.603Z,99.90
2018-04-17T02:54:25.981Z,99.90
2018-04-17T02:56:53.571Z,99.90
2018-04-17T02:59:21.179Z,99.90
2018-04-17T03:01:48.771Z,99.90
2018-04-17T03:04:17.125Z,99.90
2018-04-17T03:06:44.739Z,99.90
2018-04-17T03:09:12.320Z,99.90
2018-04-17T03:11:39.933Z,99.90
2018-04-17T03:14:08.314Z,99.90
2018-04-17T03:16:36.662Z,99.90
2018-04-17T03:19:04.319Z,99.90
2018-04-17T03:21:32.700Z,99.90
2018-04-17T03:24:00.283Z,99.90
2018-04-17T03:26:27.906Z,99.90
2018-04-17T03:28:55.511Z,99.90
2018-04-17T03:31:23.092Z,99.90
2018-04-17T03:33:51.785Z,99.90
2018-04-17T03:36:19.370Z,99.90
2018-04-17T03:38:46.954Z,99.90
2018-04-17T03:41:14.572Z,99.90
2018-04-17T03:43:42.150Z,99.90
2018-04-17T03:46:09.757Z,99.90
2018-04-17T03:48:38.109Z,99.90
2018-04-17T03:51:05.692Z,99.90
2018-04-17T03:53:33.299Z,99.90
2018-04-17T03:56:00.881Z,99.90
2018-04-17T03:58:29.347Z,99.90
2018-04-17T04:00:56.931Z,99.90
2018-04-17T04:03:24.515Z,99.90
2018-04-17T04:05:52.128Z,99.90
2018-04-17T04:08:19.708Z,99.90
2018-04-17T04:10:47.314Z,99.90
2018-04-17T04:13:15.656Z,99.90
2018-04-17T04:15:43.252Z,99.90
2018-04-17T04:18:23.400Z,99.90
2018-04-17T04:21:04.506Z,99.90
2018-04-17T04:23:44.071Z,99.90
2018-04-17T04:26:23.688Z,99.90
2018-04-17T04:28:51.293Z,99.90
2018-04-17T04:31:18.875Z,99.90
2018-04-17T04:33:46.487Z,99.90
2018-04-17T04:36:14.081Z,99.90
2018-04-17T04:38:41.669Z,99.90
2018-04-17T04:41:10.063Z,99.90
2018-04-17T04:43:37.640Z,99.90
2018-04-17T04:46:08.529Z,99.90
2018-04-17T04:48:36.113Z,99.90
2018-04-17T04:51:04.460Z,99.90
2018-04-17T04:53:32.082Z,99.90
2018-04-17T04:55:59.681Z,99.90
2018-04-17T04:58:27.292Z,99.90
2018-04-17T05:00:54.907Z,99.90
2018-04-17T05:03:22.489Z,99.90
2018-04-17T05:05:50.863Z,99.90
2018-04-17T05:08:19.212Z,99.90
2018-04-17T05:10:46.816Z,99.90
2018-04-17T05:13:19.151Z,99.90
2018-04-17T05:15:46.759Z,99.90
2018-04-17T05:18:14.361Z,99.90
2018-04-17T05:20:41.951Z,99.90
2018-04-17T05:23:09.564Z,99.90
2018-04-17T05:25:37.156Z,99.90
2018-04-17T05:28:04.776Z,99.90
2018-04-17T05:30:32.359Z,99.90
2018-04-17T05:32:59.976Z,99.90
2018-04-17T05:35:28.392Z,99.90
2018-04-17T05:37:55.979Z,99.90
2018-04-17T05:40:23.591Z,99.90
2018-04-17T05:42:51.183Z,99.90
2018-04-17T05:45:23.789Z,99.90
2018-04-17T05:47:51.367Z,99.90
2018-04-17T05:50:19.728Z,99.90
2018-04-17T05:52:47.337Z,99.90
2018-04-17T05:55:14.924Z,99.90
2018-04-17T05:57:42.535Z,99.90
2018-04-17T06:00:10.921Z,99.90
2018-04-17T06:02:39.454Z,99.90
2018-04-17T06:05:07.124Z,99.90
2018-04-17T06:07:34.700Z,99.90
2018-04-17T06:10:03.075Z,99.90
2018-04-17T06:12:30.666Z,99.90
2018-04-17T06:14:58.256Z,99.90
2018-04-17T06:17:25.881Z,99.90
2018-04-17T06:19:54.222Z,99.90
2018-04-17T06:22:21.840Z,99.90
2018-04-17T06:24:49.433Z,99.60
2018-04-17T06:27:17.020Z,99.00
2018-04-17T06:29:44.622Z,99.10
2018-04-17T06:32:12.211Z,97.90
2018-04-17T06:34:39.820Z,96.90
2018-04-17T06:37:08.172Z,97.00
2018-04-17T06:39:35.768Z,97.00
2018-04-17T06:42:04.176Z,95.30
2018-04-17T06:44:31.760Z,95.30
2018-04-17T06:46:59.371Z,95.60
2018-04-17T06:49:26.978Z,94.40
2018-04-17T06:51:54.561Z,95.20
2018-04-17T06:54:22.172Z,93.50
2018-04-17T06:56:49.775Z,94.00
2018-04-17T06:59:17.385Z,93.70
2018-04-17T07:01:44.993Z,93.30
2018-04-17T07:04:12.607Z,92.60
2018-04-17T07:06:40.219Z,91.90
2018-04-17T07:09:07.809Z,91.50
2018-04-17T07:11:36.237Z,91.50
2018-04-17T07:14:03.803Z,91.50
2018-04-17T07:16:31.391Z,91.00
2018-04-17T07:18:59.031Z,91.60
2018-04-17T07:21:26.626Z,91.20
2018-04-17T07:23:55.020Z,91.20
2018-04-17T07:26:23.376Z,91.20
2018-04-17T07:28:50.965Z,91.20
2018-04-17T07:31:35.645Z,91.00
2018-04-17T07:34:03.237Z,91.00
2018-04-17T07:36:30.901Z,91.30
2018-04-17T07:38:58.499Z,91.50
2018-04-17T07:41:26.856Z,90.80
2018-04-17T07:43:54.472Z,90.80
2018-04-17T07:46:22.065Z,90.40
2018-04-17T07:48:50.612Z,90.30
2018-04-17T07:51:18.236Z,90.50
2018-04-17T07:53:46.585Z,91.30
2018-04-17T07:56:14.176Z,91.30
2018-04-17T07:58:42.560Z,90.80
2018-04-17T08:01:11.207Z,90.40
2018-04-17T08:03:38.811Z,90.40
2018-04-17T08:06:07.190Z,90.30
2018-04-17T08:08:34.808Z,90.20
2018-04-17T08:11:02.407Z,89.60
2018-04-17T08:13:31.661Z,89.90
2018-04-17T08:15:59.257Z,89.90
2018-04-17T08:18:27.616Z,87.90
2018-04-17T08:20:55.236Z,87.90
2018-04-17T08:23:22.829Z,88.20
2018-04-17T08:25:50.425Z,87.80
2018-04-17T08:28:18.816Z,88.30
2018-04-17T08:30:46.409Z,88.30
2018-04-17T08:33:14.008Z,88.10
2018-04-17T08:35:42.431Z,88.20
2018-04-17T08:38:10.033Z,88.10
2018-04-17T08:40:37.623Z,87.50
2018-04-17T08:43:06.004Z,85.30
2018-04-17T08:45:34.356Z,84.80
2018-04-17T08:48:01.944Z,84.80
2018-04-17T08:50:30.337Z,85.60
2018-04-17T08:52:57.955Z,85.70
2018-04-17T08:55:25.560Z,85.10
2018-04-17T08:57:53.194Z,85.60
2018-04-17T09:00:20.785Z,84.40
2018-04-17T09:02:48.381Z,85.70
2018-04-17T09:05:16.038Z,84.80
2018-04-17T09:07:43.615Z,84.80
2018-04-17T09:10:11.215Z,86.70
2018-04-17T09:12:39.606Z,82.40
2018-04-17T09:15:07.200Z,82.40
2018-04-17T09:17:37.868Z,83.60
2018-04-17T09:20:05.492Z,81.50
2018-04-17T09:22:33.077Z,82.50
2018-04-17T09:25:00.677Z,81.60
2018-04-17T09:27:28.349Z,83.90
2018-04-17T09:29:55.947Z,82.80
2018-04-17T09:32:23.559Z,82.80
2018-04-17T09:34:51.204Z,84.70
2018-04-17T09:37:19.572Z,84.30
2018-04-17T09:39:47.156Z,84.30
2018-04-17T09:42:15.541Z,82.30
2018-04-17T09:44:43.137Z,82.30
2018-04-17T09:47:10.740Z,82.20
2018-04-17T09:49:39.131Z,80.50
2018-04-17T09:52:12.401Z,79.40
2018-04-17T09:54:40.020Z,79.30
2018-04-17T09:57:07.612Z,79.80
2018-04-17T09:59:35.214Z,78.80
2018-04-17T10:02:03.588Z,79.60
2018-04-17T10:04:31.948Z,73.20
2018-04-17T10:07:00.335Z,73.70
2018-04-17T10:09:28.693Z,73.60
2018-04-17T10:11:56.299Z,73.50
2018-04-17T10:14:23.933Z,73.00
2018-04-17T10:16:52.296Z,74.50
2018-04-17T10:19:19.908Z,74.50
2018-04-17T10:21:47.521Z,71.50
2018-04-17T10:24:15.115Z,72.60
2018-04-17T10:26:43.486Z,70.70
2018-04-17T10:29:11.875Z,69.60
2018-04-17T10:31:40.231Z,71.40
2018-04-17T10:34:08.619Z,70.80
2018-04-17T10:36:36.977Z,70.90
2018-04-17T10:39:04.560Z,70.90
2018-04-17T10:41:32.943Z,71.50
2018-04-17T10:44:01.301Z,73.00
2018-04-17T10:46:28.975Z,73.00
2018-04-17T10:48:56.601Z,74.10
2018-04-17T10:51:32.867Z,72.80
2018-04-17T10:54:00.461Z,66.00
2018-04-17T10:56:28.833Z,69.70
2018-04-17T10:58:56.474Z,69.70
2018-04-17T11:01:24.068Z,68.70
2018-04-17T11:03:52.473Z,68.20
2018-04-17T11:06:20.093Z,68.20
2018-04-17T11:08:47.696Z,69.50
2018-04-17T11:11:15.304Z,70.10
2018-04-17T11:13:42.905Z,61.90
2018-04-17T11:16:10.517Z,65.20
2018-04-17T11:18:43.203Z,61.80
2018-04-17T11:21:10.812Z,65.30
2018-04-17T11:23:38.409Z,61.40
2018-04-17T11:26:06.030Z,67.20
2018-04-17T11:28:33.640Z,66.80
2018-04-17T11:31:01.237Z,61.80
2018-04-17T11:33:29.626Z,62.40
2018-04-17T11:35:57.206Z,62.40
2018-04-17T11:38:24.800Z,60.00
2018-04-17T11:40:53.203Z,57.80
2018-04-17T11:43:20.800Z,57.80
2018-04-17T11:45:48.422Z,57.80
2018-04-17T11:48:16.011Z,58.70
2018-04-17T11:50:43.602Z,57.80
2018-04-17T11:53:11.208Z,59.90
2018-04-17T11:55:38.805Z,60.30
2018-04-17T11:58:06.433Z,55.30
2018-04-17T12:00:34.783Z,54.70
2018-04-17T12:03:02.387Z,54.60
2018-04-17T12:05:30.771Z,56.20
2018-04-17T12:07:58.363Z,56.30
2018-04-17T12:10:25.988Z,56.60
2018-04-17T12:12:54.343Z,53.00
2018-04-17T12:15:21.935Z,53.00
2018-04-17T12:17:49.556Z,57.80
2018-04-17T12:20:17.145Z,58.20
2018-04-17T12:22:45.528Z,54.20
2018-04-17T12:25:13.904Z,52.20
2018-04-17T12:27:42.269Z,51.50
2018-04-17T12:30:09.880Z,51.60
2018-04-17T12:32:37.487Z,51.40
2018-04-17T12:35:05.104Z,50.20
2018-04-17T12:37:32.691Z,51.30
2018-04-17T12:40:00.267Z,51.00
2018-04-17T12:42:27.871Z,56.20
2018-04-17T12:44:55.463Z,53.60
2018-04-17T12:47:23.076Z,51.20
2018-04-17T12:49:50.668Z,52.60
2018-04-17T12:52:18.248Z,47.90
2018-04-17T12:54:45.853Z,47.70
2018-04-17T12:57:13.461Z,47.00
2018-04-17T12:59:41.073Z,45.10
2018-04-17T13:02:09.530Z,44.50
2018-04-17T13:04:37.235Z,44.40
2018-04-17T13:07:04.839Z,44.40
2018-04-17T13:09:32.559Z,44.60
2018-04-17T13:12:00.180Z,42.10
2018-04-17T13:14:27.772Z,42.30
2018-04-17T13:16:55.368Z,44.30
2018-04-17T13:19:22.981Z,40.90
2018-04-17T13:21:51.358Z,40.00
2018-04-17T13:24:20.597Z,39.80
2018-04-17T13:26:48.190Z,39.80
2018-04-17T13:29:15.788Z,41.70
2018-04-17T13:31:44.177Z,41.70
2018-04-17T13:34:11.764Z,41.70
2018-04-17T13:37:03.548Z,40.00
2018-04-17T13:39:31.903Z,43.80
2018-04-17T13:41:59.529Z,43.70
2018-04-17T13:44:27.132Z,40.80
2018-04-17T13:46:54.716Z,41.70
2018-04-17T13:49:23.087Z,39.90
2018-04-17T13:51:51.480Z,39.10
2018-04-17T13:54:19.881Z,39.80
2018-04-17T13:56:47.473Z,39.70
2018-04-17T13:59:15.851Z,41.90
2018-04-17T14:01:43.503Z,41.90
2018-04-17T14:04:11.109Z,43.80
2018-04-17T14:06:41.543Z,43.70
2018-04-17T14:09:25.193Z,44.30
2018-04-17T14:11:52.808Z,44.30
2018-04-17T14:14:20.460Z,42.80
2018-04-17T14:16:48.042Z,42.70
2018-04-17T14:19:15.652Z,41.10
2018-04-17T14:21:44.349Z,39.90
2018-04-17T14:24:11.982Z,41.00
2018-04-17T14:26:39.580Z,40.80
2018-04-17T14:29:07.164Z,37.40
2018-04-17T14:31:34.759Z,38.00
2018-04-17T14:34:03.100Z,39.80
2018-04-17T14:36:30.720Z,39.80
2018-04-17T14:38:58.324Z,40.20
2018-04-17T14:41:25.912Z,37.80
2018-04-17T14:43:54.276Z,39.20
2018-04-17T14:46:21.865Z,39.20
2018-04-17T14:48:49.468Z,42.30
2018-04-17T14:51:17.052Z,39.40
2018-04-17T14:53:44.652Z,39.10
2018-04-17T14:56:12.273Z,41.10
2018-04-17T14:58:39.892Z,38.90
2018-04-17T15:01:07.506Z,40.50
2018-04-17T15:03:35.860Z,38.70
2018-04-17T15:06:03.448Z,38.70
2018-04-17T15:08:31.845Z,39.10
2018-04-17T15:11:00.197Z,40.50
2018-04-17T15:13:28.580Z,41.70
2018-04-17T15:15:56.161Z,41.70
2018-04-17T15:18:23.760Z,39.50
2018-04-17T15:20:51.391Z,41.30
2018-04-17T15:23:18.986Z,40.30
2018-04-17T15:25:46.613Z,39.10
2018-04-17T15:28:14.201Z,39.20
2018-04-17T15:30:41.823Z,42.10
2018-04-17T15:33:10.196Z,40.50
2018-04-17T15:35:38.550Z,42.50
2018-04-17T15:38:06.156Z,42.50
2018-04-17T15:40:33.739Z,42.20
2018-04-17T15:43:01.329Z,43.80
2018-04-17T15:45:28.958Z,46.10
2018-04-17T15:47:56.558Z,46.90
2018-04-17T15:50:24.168Z,47.30
2018-04-17T15:52:51.752Z,44.70
2018-04-17T15:55:19.327Z,42.30
2018-04-17T15:57:46.929Z,42.10
2018-04-17T16:00:15.279Z,40.60
2018-04-17T16:02:42.897Z,40.20
2018-04-17T16:05:10.503Z,45.00
2018-04-17T16:07:38.088Z,41.10
2018-04-17T16:10:06.475Z,42.70
2018-04-17T16:12:34.055Z,42.70
2018-04-17T16:15:01.677Z,42.90
2018-04-17T16:17:30.036Z,40.90
2018-04-17T16:19:57.632Z,40.80
2018-04-17T16:22:25.245Z,41.30
2018-04-17T16:24:52.832Z,41.80
2018-04-17T16:27:21.211Z,42.10
2018-04-17T16:29:48.804Z,42.10
2018-04-17T16:32:16.387Z,42.10
2018-04-17T16:34:44.009Z,43.00
2018-04-17T16:37:12.361Z,44.80
2018-04-17T16:39:39.976Z,44.80
2018-04-17T16:42:07.584Z,43.40
2018-04-17T16:44:35.167Z,43.30
2018-04-17T16:47:03.543Z,44.30
2018-04-17T16:49:31.910Z,45.60
2018-04-17T16:51:59.535Z,45.60
2018-04-17T16:54:27.124Z,44.80
2018-04-17T16:56:54.723Z,44.10
2018-04-17T16:59:22.347Z,48.20
2018-04-17T17:01:49.935Z,46.90
2018-04-17T17:04:18.310Z,47.00
2018-04-17T17:06:46.657Z,45.80
2018-04-17T17:09:14.244Z,45.70
2018-04-17T17:11:42.620Z,49.40
2018-04-17T17:14:10.984Z,48.20
2018-04-17T17:16:38.601Z,48.20
2018-04-17T17:19:06.194Z,48.10
2018-04-17T17:21:33.776Z,49.10
2018-04-17T17:24:01.442Z,49.10
2018-04-17T17:26:29.047Z,50.80
2018-04-17T17:28:56.718Z,51.20
2018-04-17T17:31:24.342Z,51.10
2018-04-17T17:33:52.692Z,53.00
2018-04-17T17:36:20.310Z,53.10
2018-04-17T17:38:47.907Z,52.10
2018-04-17T17:41:15.515Z,53.80
2018-04-17T17:43:43.209Z,53.20
2018-04-17T17:46:10.798Z,54.70
2018-04-17T17:48:38.404Z,53.60
2018-04-17T17:51:06.007Z,58.00
2018-04-17T17:53:34.480Z,60.20
2018-04-17T17:56:02.063Z,60.10
2018-04-17T17:58:29.649Z,58.80
2018-04-17T18:00:57.275Z,63.40
2018-04-17T18:03:24.863Z,60.60
2018-04-17T18:05:53.242Z,65.90
2018-04-17T18:08:21.591Z,62.70
2018-04-17T18:10:49.183Z,62.90
2018-04-17T18:13:17.564Z,64.60
2018-04-17T18:15:45.924Z,68.10
2018-04-17T18:18:13.546Z,68.10
2018-04-17T18:20:41.255Z,70.20
2018-04-17T18:23:09.665Z,69.40
2018-04-17T18:25:37.315Z,69.40
2018-04-17T18:28:05.683Z,71.80
2018-04-17T18:30:34.060Z,68.00
2018-04-17T18:33:02.403Z,68.60
2018-04-17T18:35:31.020Z,68.60
2018-04-17T18:37:58.791Z,70.40
2018-04-17T18:40:27.136Z,71.90
2018-04-17T18:42:54.753Z,71.80
2018-04-17T18:45:22.343Z,70.20
2018-04-17T18:47:49.927Z,70.60
2018-04-17T18:50:25.543Z,73.10
2018-04-17T18:52:53.136Z,69.60
2018-04-17T18:55:20.815Z,70.80
2018-04-17T18:57:54.965Z,70.10
2018-04-17T19:00:22.577Z,70.00
2018-04-17T19:02:50.172Z,74.60
2018-04-17T19:05:17.868Z,74.40
2018-04-17T19:07:45.481Z,70.00
2018-04-17T19:10:13.858Z,72.10
2018-04-17T19:12:42.258Z,69.80
2018-04-17T19:15:09.848Z,69.70
2018-04-17T19:17:37.455Z,72.40
2018-04-17T19:20:05.910Z,71.00
2018-04-17T19:22:38.613Z,71.00
2018-04-17T19:25:07.049Z,76.20
2018-04-17T19:27:34.672Z,76.20
2018-04-17T19:30:23.543Z,75.60
2018-04-17T19:32:51.168Z,75.80
2018-04-17T19:35:18.756Z,78.40
2018-04-17T19:37:47.131Z,77.60
2018-04-17T19:40:15.538Z,77.20
2018-04-17T19:45:41.897Z,77.70
2018-04-17T19:48:09.516Z,79.00
2018-04-17T19:50:37.874Z,80.20
2018-04-17T19:53:06.461Z,80.10
2018-04-17T19:55:34.059Z,80.80
2018-04-17T19:58:02.600Z,81.00
2018-04-17T20:00:31.210Z,81.90
2018-04-17T20:03:08.057Z,83.20
2018-04-17T20:05:59.120Z,83.20
2018-04-17T20:08:26.764Z,83.50
2018-04-17T20:10:55.160Z,83.90
2018-04-17T20:13:26.760Z,83.90
2018-04-17T20:15:54.383Z,84.20
2018-04-17T20:18:22.041Z,85.10
2018-04-17T20:20:49.629Z,86.90
2018-04-17T20:23:23.570Z,87.20
2018-04-17T20:25:51.156Z,87.60
2018-04-17T20:28:19.535Z,90.10
2018-04-17T20:30:47.884Z,90.00
2018-04-17T20:33:16.258Z,90.10
2018-04-17T20:35:43.900Z,90.00
2018-04-17T20:38:11.516Z,90.30
2018-04-17T20:40:39.895Z,91.10
2018-04-17T20:43:07.508Z,91.10
2018-04-17T20:45:35.104Z,91.60
2018-04-17T20:48:16.707Z,91.80
2018-04-17T20:50:45.055Z,92.00
2018-04-17T20:53:12.688Z,92.00
2018-04-17T20:55:40.276Z,92.00
2018-04-17T20:58:07.859Z,92.10
2018-04-17T21:00:40.116Z,92.40
2018-04-17T21:03:07.721Z,92.40
2018-04-17T21:05:35.340Z,92.80
2018-04-17T21:08:11.038Z,93.20
2018-04-17T21:10:38.646Z,93.20
2018-04-17T21:13:07.010Z,93.80
2018-04-17T21:15:34.604Z,93.70
2018-04-17T21:18:06.361Z,94.00
2018-04-17T21:20:34.711Z,95.20
2018-04-17T21:23:02.330Z,95.20
2018-04-17T21:25:29.919Z,95.10
2018-04-17T21:27:57.514Z,94.90
2018-04-17T21:30:25.887Z,94.50
2018-04-17T21:32:53.516Z,94.50
2018-04-17T21:35:21.135Z,94.50
2018-04-17T21:37:48.733Z,95.40
2018-04-17T21:40:16.315Z,95.80
2018-04-17T21:42:43.964Z,95.80
2018-04-17T21:45:11.574Z,95.90
2018-04-17T21:47:39.195Z,96.10
2018-04-17T21:50:06.782Z,96.30
2018-04-17T21:52:35.132Z,96.30
2018-04-17T21:55:02.747Z,96.20
2018-04-17T21:57:30.332Z,96.10
2018-04-17T21:59:57.944Z,95.70
2018-04-17T22:02:26.379Z,95.70
2018-04-17T22:04:53.959Z,95.70
2018-04-17T22:07:21.567Z,95.40
2018-04-17T22:09:49.153Z,95.30
2018-04-17T22:12:16.810Z,95.40
2018-04-17T22:14:44.397Z,95.50
2018-04-17T22:17:15.432Z,95.30
2018-04-17T22:19:43.039Z,95.70
2018-04-17T22:22:11.387Z,96.40
2018-04-17T22:24:39.012Z,96.30
2018-04-17T22:27:06.600Z,96.60
2018-04-17T22:29:34.180Z,96.80
2018-04-17T22:32:01.794Z,97.30
2018-04-17T22:34:29.400Z,97.10
2018-04-17T22:36:57.064Z,97.50
2018-04-17T22:39:24.663Z,97.70
2018-04-17T22:41:52.259Z,97.80
2018-04-17T22:44:19.863Z,98.00
2018-04-17T22:46:47.499Z,98.10
2018-04-17T22:49:15.117Z,98.10
2018-04-17T22:51:42.705Z,98.30
2018-04-17T22:54:10.294Z,98.50
2018-04-17T22:56:37.901Z,98.10
2018-04-17T22:59:05.500Z,98.70
2018-04-17T23:01:33.113Z,98.80
2018-04-17T23:04:00.709Z,98.50
2018-04-17T23:06:28.291Z,98.60
2018-04-17T23:08:55.888Z,99.20
2018-04-17T23:11:23.477Z,99.10
2018-04-17T23:13:51.092Z,99.10
2018-04-17T23:16:19.450Z,99.70
2018-04-17T23:18:47.038Z,99.60
2018-04-17T23:21:15.411Z,99.70
2018-04-17T23:23:43.776Z,99.80
2018-04-17T23:26:11.397Z,99.80
2018-04-17T23:28:38.977Z,99.90
2018-04-17T23:31:07.356Z,99.90
2018-04-17T23:33:34.986Z,99.90
2018-04-17T23:36:02.580Z,99.90
2018-04-17T23:38:30.203Z,99.90
2018-04-17T23:40:57.800Z,99.90
2018-04-17T23:43:25.408Z,99.90
2018-04-17T23:45:53.031Z,99.90
2018-04-17T23:48:20.656Z,99.90
2018-04-17T23:50:48.280Z,99.90
2018-04-17T23:53:16.631Z,99.90
2018-04-17T23:55:44.230Z,99.90
2018-04-17T23:58:11.852Z,99.90
